sensor_id;sensor_type;location;lat;lon;timestamp;P1;durP1;ratioP1;P2;durP2;ratioP2
23370;SDS011;11858;51.056;3.712;2023-03-08T00:01:36;36.17;;;19.75;;
23370;SDS011;11858;51.056;3.712;2023-03-08T00:04:02;30.00;;;16.98;;
23370;SDS011;11858;51.056;3.712;2023-03-08T00:06:27;28.95;;;16.85;;
23370;SDS011;11858;51.056;3.712;2023-03-08T00:08:57;27.48;;;16.15;;
23370;SDS011;11858;51.056;3.712;2023-03-08T00:11:24;28.67;;;17.08;;
23370;SDS011;11858;51.056;3.712;2023-03-08T00:13:50;27.27;;;15.73;;
23370;SDS011;11858;51.056;3.712;2023-03-08T00:16:17;25.38;;;14.85;;
23370;SDS011;11858;51.056;3.712;2023-03-08T00:18:43;24.85;;;14.30;;
23370;SDS011;11858;51.056;3.712;2023-03-08T00:21:09;24.13;;;14.23;;
23370;SDS011;11858;51.056;3.712;2023-03-08T00:23:38;23.15;;;14.73;;
23370;SDS011;11858;51.056;3.712;2023-03-08T00:26:04;24.85;;;13.85;;
23370;SDS011;11858;51.056;3.712;2023-03-08T00:28:30;22.60;;;13.43;;
23370;SDS011;11858;51.056;3.712;2023-03-08T00:30:57;21.58;;;12.98;;
23370;SDS011;11858;51.056;3.712;2023-03-08T00:33:24;18.95;;;12.55;;
23370;SDS011;11858;51.056;3.712;2023-03-08T00:35:57;18.45;;;12.50;;
23370;SDS011;11858;51.056;3.712;2023-03-08T00:38:32;13.88;;;9.35;;
23370;SDS011;11858;51.056;3.712;2023-03-08T00:40:59;20.40;;;12.38;;
23370;SDS011;11858;51.056;3.712;2023-03-08T00:43:26;19.98;;;12.25;;
23370;SDS011;11858;51.056;3.712;2023-03-08T00:45:52;18.88;;;12.85;;
23370;SDS011;11858;51.056;3.712;2023-03-08T00:48:18;22.42;;;13.38;;
23370;SDS011;11858;51.056;3.712;2023-03-08T00:50:44;19.38;;;12.65;;
23370;SDS011;11858;51.056;3.712;2023-03-08T00:53:10;19.15;;;13.20;;
23370;SDS011;11858;51.056;3.712;2023-03-08T00:55:36;22.65;;;13.55;;
23370;SDS011;11858;51.056;3.712;2023-03-08T00:58:02;25.20;;;15.25;;
23370;SDS011;11858;51.056;3.712;2023-03-08T01:00:28;24.38;;;15.65;;
23370;SDS011;11858;51.056;3.712;2023-03-08T01:02:54;26.17;;;15.73;;
23370;SDS011;11858;51.056;3.712;2023-03-08T01:05:21;26.20;;;17.08;;
23370;SDS011;11858;51.056;3.712;2023-03-08T01:07:47;29.50;;;17.00;;
23370;SDS011;11858;51.056;3.712;2023-03-08T01:10:13;26.85;;;16.85;;
23370;SDS011;11858;51.056;3.712;2023-03-08T01:12:39;29.83;;;17.42;;
23370;SDS011;11858;51.056;3.712;2023-03-08T01:15:05;31.63;;;18.20;;
23370;SDS011;11858;51.056;3.712;2023-03-08T01:17:31;29.70;;;18.40;;
23370;SDS011;11858;51.056;3.712;2023-03-08T01:19:57;30.25;;;18.08;;
23370;SDS011;11858;51.056;3.712;2023-03-08T01:22:22;32.10;;;18.15;;
23370;SDS011;11858;51.056;3.712;2023-03-08T01:24:48;32.85;;;18.50;;
23370;SDS011;11858;51.056;3.712;2023-03-08T01:27:14;33.55;;;18.75;;
23370;SDS011;11858;51.056;3.712;2023-03-08T01:29:41;30.83;;;18.83;;
23370;SDS011;11858;51.056;3.712;2023-03-08T01:32:08;35.50;;;19.30;;
23370;SDS011;11858;51.056;3.712;2023-03-08T01:34:37;30.92;;;18.40;;
23370;SDS011;11858;51.056;3.712;2023-03-08T01:37:03;30.13;;;18.13;;
23370;SDS011;11858;51.056;3.712;2023-03-08T01:39:29;28.70;;;16.95;;
23370;SDS011;11858;51.056;3.712;2023-03-08T01:41:55;29.50;;;16.75;;
23370;SDS011;11858;51.056;3.712;2023-03-08T01:44:21;28.02;;;16.95;;
23370;SDS011;11858;51.056;3.712;2023-03-08T01:46:47;28.70;;;16.63;;
23370;SDS011;11858;51.056;3.712;2023-03-08T01:51:46;25.33;;;15.50;;
23370;SDS011;11858;51.056;3.712;2023-03-08T01:54:34;24.00;;;15.20;;
23370;SDS011;11858;51.056;3.712;2023-03-08T01:57:06;23.95;;;14.82;;
23370;SDS011;11858;51.056;3.712;2023-03-08T01:59:39;22.83;;;14.90;;
23370;SDS011;11858;51.056;3.712;2023-03-08T02:02:06;24.80;;;15.23;;
23370;SDS011;11858;51.056;3.712;2023-03-08T02:04:32;25.80;;;15.75;;
23370;SDS011;11858;51.056;3.712;2023-03-08T02:06:59;25.75;;;15.73;;
23370;SDS011;11858;51.056;3.712;2023-03-08T02:09:25;29.40;;;17.00;;
23370;SDS011;11858;51.056;3.712;2023-03-08T02:11:50;26.65;;;16.05;;
23370;SDS011;11858;51.056;3.712;2023-03-08T02:14:17;29.30;;;17.35;;
23370;SDS011;11858;51.056;3.712;2023-03-08T02:16:43;27.52;;;16.98;;
23370;SDS011;11858;51.056;3.712;2023-03-08T02:19:16;30.77;;;17.60;;
23370;SDS011;11858;51.056;3.712;2023-03-08T02:21:50;27.55;;;16.73;;
23370;SDS011;11858;51.056;3.712;2023-03-08T02:24:23;30.13;;;17.55;;
23370;SDS011;11858;51.056;3.712;2023-03-08T02:26:57;27.13;;;16.50;;
23370;SDS011;11858;51.056;3.712;2023-03-08T02:29:27;26.60;;;16.00;;
23370;SDS011;11858;51.056;3.712;2023-03-08T02:31:53;30.60;;;17.23;;
23370;SDS011;11858;51.056;3.712;2023-03-08T02:34:19;30.35;;;17.65;;
23370;SDS011;11858;51.056;3.712;2023-03-08T02:36:45;29.52;;;18.48;;
23370;SDS011;11858;51.056;3.712;2023-03-08T02:39:10;30.05;;;18.42;;
23370;SDS011;11858;51.056;3.712;2023-03-08T02:41:36;27.23;;;16.27;;
23370;SDS011;11858;51.056;3.712;2023-03-08T02:44:02;30.77;;;17.60;;
23370;SDS011;11858;51.056;3.712;2023-03-08T02:46:28;31.45;;;17.25;;
23370;SDS011;11858;51.056;3.712;2023-03-08T02:48:53;28.17;;;16.38;;
23370;SDS011;11858;51.056;3.712;2023-03-08T02:51:19;26.00;;;15.98;;
23370;SDS011;11858;51.056;3.712;2023-03-08T02:53:45;26.17;;;15.75;;
23370;SDS011;11858;51.056;3.712;2023-03-08T02:56:11;27.15;;;15.55;;
23370;SDS011;11858;51.056;3.712;2023-03-08T02:58:36;27.02;;;15.50;;
23370;SDS011;11858;51.056;3.712;2023-03-08T03:01:02;23.73;;;14.48;;
23370;SDS011;11858;51.056;3.712;2023-03-08T03:03:28;25.25;;;14.80;;
23370;SDS011;11858;51.056;3.712;2023-03-08T03:05:55;28.92;;;15.15;;
23370;SDS011;11858;51.056;3.712;2023-03-08T03:08:21;26.25;;;14.63;;
23370;SDS011;11858;51.056;3.712;2023-03-08T03:10:47;24.35;;;14.30;;
23370;SDS011;11858;51.056;3.712;2023-03-08T03:13:12;25.77;;;15.35;;
23370;SDS011;11858;51.056;3.712;2023-03-08T03:15:38;23.10;;;14.30;;
23370;SDS011;11858;51.056;3.712;2023-03-08T03:18:04;28.50;;;15.68;;
23370;SDS011;11858;51.056;3.712;2023-03-08T03:20:30;25.52;;;15.30;;
23370;SDS011;11858;51.056;3.712;2023-03-08T03:22:57;27.38;;;14.82;;
23370;SDS011;11858;51.056;3.712;2023-03-08T03:25:23;26.73;;;15.60;;
23370;SDS011;11858;51.056;3.712;2023-03-08T03:27:49;24.88;;;15.02;;
23370;SDS011;11858;51.056;3.712;2023-03-08T03:30:15;27.00;;;16.10;;
23370;SDS011;11858;51.056;3.712;2023-03-08T03:32:41;28.88;;;16.10;;
23370;SDS011;11858;51.056;3.712;2023-03-08T03:35:07;27.08;;;14.43;;
23370;SDS011;11858;51.056;3.712;2023-03-08T03:37:33;24.45;;;14.95;;
23370;SDS011;11858;51.056;3.712;2023-03-08T03:40:00;28.10;;;15.43;;
23370;SDS011;11858;51.056;3.712;2023-03-08T03:42:26;27.98;;;15.43;;
23370;SDS011;11858;51.056;3.712;2023-03-08T03:44:52;31.75;;;15.70;;
23370;SDS011;11858;51.056;3.712;2023-03-08T03:47:18;29.30;;;16.23;;
23370;SDS011;11858;51.056;3.712;2023-03-08T03:49:44;28.23;;;15.95;;
23370;SDS011;11858;51.056;3.712;2023-03-08T03:52:09;28.33;;;14.85;;
23370;SDS011;11858;51.056;3.712;2023-03-08T03:54:35;26.23;;;15.70;;
23370;SDS011;11858;51.056;3.712;2023-03-08T03:57:01;27.83;;;15.82;;
23370;SDS011;11858;51.056;3.712;2023-03-08T03:59:27;28.00;;;15.75;;
23370;SDS011;11858;51.056;3.712;2023-03-08T04:01:53;33.03;;;16.48;;
23370;SDS011;11858;51.056;3.712;2023-03-08T04:04:18;30.45;;;16.83;;
23370;SDS011;11858;51.056;3.712;2023-03-08T04:06:44;30.92;;;16.95;;
23370;SDS011;11858;51.056;3.712;2023-03-08T04:09:14;30.77;;;17.23;;
23370;SDS011;11858;51.056;3.712;2023-03-08T04:11:41;29.90;;;16.95;;
23370;SDS011;11858;51.056;3.712;2023-03-08T04:14:07;33.58;;;18.30;;
23370;SDS011;11858;51.056;3.712;2023-03-08T04:16:35;36.35;;;18.67;;
23370;SDS011;11858;51.056;3.712;2023-03-08T04:19:03;36.45;;;19.23;;
23370;SDS011;11858;51.056;3.712;2023-03-08T04:21:34;35.72;;;19.23;;
23370;SDS011;11858;51.056;3.712;2023-03-08T04:24:00;37.80;;;19.83;;
23370;SDS011;11858;51.056;3.712;2023-03-08T04:26:26;38.08;;;20.02;;
23370;SDS011;11858;51.056;3.712;2023-03-08T04:28:52;39.67;;;20.45;;
23370;SDS011;11858;51.056;3.712;2023-03-08T04:31:19;39.42;;;19.77;;
23370;SDS011;11858;51.056;3.712;2023-03-08T04:33:47;40.13;;;19.55;;
23370;SDS011;11858;51.056;3.712;2023-03-08T04:36:13;35.05;;;17.90;;
23370;SDS011;11858;51.056;3.712;2023-03-08T04:38:40;37.88;;;18.30;;
23370;SDS011;11858;51.056;3.712;2023-03-08T04:41:06;35.97;;;17.73;;
23370;SDS011;11858;51.056;3.712;2023-03-08T04:43:49;34.70;;;17.00;;
23370;SDS011;11858;51.056;3.712;2023-03-08T04:46:16;34.60;;;17.65;;
23370;SDS011;11858;51.056;3.712;2023-03-08T04:48:44;36.20;;;17.88;;
23370;SDS011;11858;51.056;3.712;2023-03-08T04:51:11;36.00;;;17.48;;
23370;SDS011;11858;51.056;3.712;2023-03-08T04:53:38;33.72;;;17.25;;
23370;SDS011;11858;51.056;3.712;2023-03-08T04:56:06;33.65;;;16.35;;
23370;SDS011;11858;51.056;3.712;2023-03-08T04:58:32;28.77;;;15.85;;
23370;SDS011;11858;51.056;3.712;2023-03-08T05:00:59;31.88;;;15.65;;
23370;SDS011;11858;51.056;3.712;2023-03-08T05:03:43;31.30;;;13.77;;
23370;SDS011;11858;51.056;3.712;2023-03-08T05:06:10;28.88;;;14.77;;
23370;SDS011;11858;51.056;3.712;2023-03-08T05:08:38;29.17;;;15.73;;
23370;SDS011;11858;51.056;3.712;2023-03-08T05:11:04;32.28;;;14.13;;
23370;SDS011;11858;51.056;3.712;2023-03-08T05:13:31;30.80;;;15.30;;
23370;SDS011;11858;51.056;3.712;2023-03-08T05:15:59;28.38;;;14.27;;
23370;SDS011;11858;51.056;3.712;2023-03-08T05:18:25;28.73;;;14.88;;
23370;SDS011;11858;51.056;3.712;2023-03-08T05:20:55;27.60;;;14.15;;
23370;SDS011;11858;51.056;3.712;2023-03-08T05:23:23;28.30;;;14.68;;
23370;SDS011;11858;51.056;3.712;2023-03-08T05:25:56;26.73;;;14.57;;
23370;SDS011;11858;51.056;3.712;2023-03-08T05:28:24;26.95;;;14.45;;
23370;SDS011;11858;51.056;3.712;2023-03-08T05:31:01;25.42;;;13.50;;
23370;SDS011;11858;51.056;3.712;2023-03-08T05:33:27;25.52;;;13.48;;
23370;SDS011;11858;51.056;3.712;2023-03-08T05:35:53;26.50;;;13.50;;
23370;SDS011;11858;51.056;3.712;2023-03-08T05:38:20;26.75;;;14.00;;
23370;SDS011;11858;51.056;3.712;2023-03-08T05:40:46;27.83;;;14.85;;
23370;SDS011;11858;51.056;3.712;2023-03-08T05:43:12;28.98;;;13.98;;
23370;SDS011;11858;51.056;3.712;2023-03-08T05:45:38;26.27;;;14.05;;
23370;SDS011;11858;51.056;3.712;2023-03-08T05:48:04;26.88;;;14.75;;
23370;SDS011;11858;51.056;3.712;2023-03-08T05:50:30;28.35;;;14.65;;
23370;SDS011;11858;51.056;3.712;2023-03-08T05:52:55;27.45;;;13.68;;
23370;SDS011;11858;51.056;3.712;2023-03-08T05:55:21;30.02;;;14.38;;
23370;SDS011;11858;51.056;3.712;2023-03-08T05:57:47;25.67;;;13.27;;
23370;SDS011;11858;51.056;3.712;2023-03-08T06:00:14;24.88;;;12.73;;
23370;SDS011;11858;51.056;3.712;2023-03-08T06:02:40;27.08;;;12.95;;
23370;SDS011;11858;51.056;3.712;2023-03-08T06:05:06;25.70;;;13.25;;
23370;SDS011;11858;51.056;3.712;2023-03-08T06:07:33;25.60;;;12.40;;
23370;SDS011;11858;51.056;3.712;2023-03-08T06:09:58;22.38;;;12.10;;
23370;SDS011;11858;51.056;3.712;2023-03-08T06:12:24;23.60;;;12.38;;
23370;SDS011;11858;51.056;3.712;2023-03-08T06:14:50;23.15;;;11.82;;
23370;SDS011;11858;51.056;3.712;2023-03-08T06:17:16;21.45;;;12.10;;
23370;SDS011;11858;51.056;3.712;2023-03-08T06:19:42;22.08;;;12.82;;
23370;SDS011;11858;51.056;3.712;2023-03-08T06:22:07;23.90;;;12.05;;
23370;SDS011;11858;51.056;3.712;2023-03-08T06:24:34;20.65;;;11.88;;
23370;SDS011;11858;51.056;3.712;2023-03-08T06:27:00;24.67;;;12.68;;
23370;SDS011;11858;51.056;3.712;2023-03-08T06:29:26;23.05;;;12.52;;
23370;SDS011;11858;51.056;3.712;2023-03-08T06:31:51;21.15;;;11.65;;
23370;SDS011;11858;51.056;3.712;2023-03-08T06:34:17;25.58;;;13.13;;
23370;SDS011;11858;51.056;3.712;2023-03-08T06:36:43;22.85;;;12.23;;
23370;SDS011;11858;51.056;3.712;2023-03-08T06:39:08;20.63;;;12.05;;
23370;SDS011;11858;51.056;3.712;2023-03-08T06:41:34;22.08;;;11.68;;
23370;SDS011;11858;51.056;3.712;2023-03-08T06:44:00;22.20;;;12.13;;
23370;SDS011;11858;51.056;3.712;2023-03-08T06:46:26;24.05;;;12.68;;
23370;SDS011;11858;51.056;3.712;2023-03-08T06:48:52;24.08;;;13.90;;
23370;SDS011;11858;51.056;3.712;2023-03-08T06:51:18;25.00;;;13.35;;
23370;SDS011;11858;51.056;3.712;2023-03-08T06:53:45;29.38;;;14.85;;
23370;SDS011;11858;51.056;3.712;2023-03-08T06:56:12;28.73;;;15.18;;
23370;SDS011;11858;51.056;3.712;2023-03-08T06:58:40;30.92;;;16.23;;
23370;SDS011;11858;51.056;3.712;2023-03-08T07:01:06;32.40;;;17.85;;
23370;SDS011;11858;51.056;3.712;2023-03-08T07:03:33;37.00;;;17.77;;
23370;SDS011;11858;51.056;3.712;2023-03-08T07:06:00;32.17;;;17.67;;
23370;SDS011;11858;51.056;3.712;2023-03-08T07:08:31;30.27;;;16.55;;
23370;SDS011;11858;51.056;3.712;2023-03-08T07:10:57;29.20;;;17.23;;
23370;SDS011;11858;51.056;3.712;2023-03-08T07:13:24;31.30;;;17.48;;
23370;SDS011;11858;51.056;3.712;2023-03-08T07:15:50;28.80;;;16.52;;
23370;SDS011;11858;51.056;3.712;2023-03-08T07:18:17;28.50;;;16.05;;
23370;SDS011;11858;51.056;3.712;2023-03-08T07:20:43;33.08;;;17.75;;
23370;SDS011;11858;51.056;3.712;2023-03-08T07:23:08;33.38;;;17.38;;
23370;SDS011;11858;51.056;3.712;2023-03-08T07:25:36;28.92;;;15.38;;
23370;SDS011;11858;51.056;3.712;2023-03-08T07:28:04;29.60;;;15.88;;
23370;SDS011;11858;51.056;3.712;2023-03-08T07:30:30;26.10;;;14.18;;
23370;SDS011;11858;51.056;3.712;2023-03-08T07:32:55;25.10;;;14.50;;
23370;SDS011;11858;51.056;3.712;2023-03-08T07:35:21;23.42;;;13.73;;
23370;SDS011;11858;51.056;3.712;2023-03-08T07:37:47;23.30;;;12.68;;
23370;SDS011;11858;51.056;3.712;2023-03-08T07:40:14;22.10;;;12.80;;
23370;SDS011;11858;51.056;3.712;2023-03-08T07:42:41;19.23;;;11.38;;
23370;SDS011;11858;51.056;3.712;2023-03-08T07:45:10;18.30;;;11.10;;
23370;SDS011;11858;51.056;3.712;2023-03-08T07:47:37;19.55;;;11.73;;
23370;SDS011;11858;51.056;3.712;2023-03-08T07:50:04;18.42;;;10.95;;
23370;SDS011;11858;51.056;3.712;2023-03-08T07:52:31;20.63;;;11.95;;
23370;SDS011;11858;51.056;3.712;2023-03-08T07:54:56;22.30;;;12.10;;
23370;SDS011;11858;51.056;3.712;2023-03-08T07:57:22;18.48;;;11.30;;
23370;SDS011;11858;51.056;3.712;2023-03-08T07:59:48;18.05;;;11.23;;
23370;SDS011;11858;51.056;3.712;2023-03-08T08:02:14;17.60;;;10.80;;
23370;SDS011;11858;51.056;3.712;2023-03-08T08:04:40;15.88;;;10.02;;
23370;SDS011;11858;51.056;3.712;2023-03-08T08:07:10;17.98;;;11.38;;
23370;SDS011;11858;51.056;3.712;2023-03-08T08:09:36;19.20;;;11.13;;
23370;SDS011;11858;51.056;3.712;2023-03-08T08:12:03;16.33;;;10.35;;
23370;SDS011;11858;51.056;3.712;2023-03-08T08:14:30;16.02;;;10.23;;
23370;SDS011;11858;51.056;3.712;2023-03-08T08:16:56;17.08;;;10.40;;
23370;SDS011;11858;51.056;3.712;2023-03-08T08:19:22;17.52;;;10.63;;
23370;SDS011;11858;51.056;3.712;2023-03-08T08:21:48;18.42;;;11.32;;
23370;SDS011;11858;51.056;3.712;2023-03-08T08:24:14;17.73;;;10.45;;
23370;SDS011;11858;51.056;3.712;2023-03-08T08:26:40;16.70;;;10.90;;
23370;SDS011;11858;51.056;3.712;2023-03-08T08:29:06;18.10;;;10.95;;
23370;SDS011;11858;51.056;3.712;2023-03-08T08:31:32;16.40;;;10.52;;
23370;SDS011;11858;51.056;3.712;2023-03-08T08:33:57;16.90;;;10.52;;
23370;SDS011;11858;51.056;3.712;2023-03-08T08:36:24;16.27;;;9.82;;
23370;SDS011;11858;51.056;3.712;2023-03-08T08:38:50;16.20;;;10.45;;
23370;SDS011;11858;51.056;3.712;2023-03-08T08:41:17;15.95;;;10.07;;
23370;SDS011;11858;51.056;3.712;2023-03-08T08:43:45;16.05;;;10.02;;
23370;SDS011;11858;51.056;3.712;2023-03-08T08:46:11;14.63;;;9.68;;
23370;SDS011;11858;51.056;3.712;2023-03-08T08:48:38;18.65;;;9.65;;
23370;SDS011;11858;51.056;3.712;2023-03-08T08:51:05;15.13;;;10.00;;
23370;SDS011;11858;51.056;3.712;2023-03-08T08:53:32;14.63;;;9.32;;
23370;SDS011;11858;51.056;3.712;2023-03-08T08:56:08;13.02;;;8.85;;
23370;SDS011;11858;51.056;3.712;2023-03-08T08:58:44;12.93;;;9.35;;
23370;SDS011;11858;51.056;3.712;2023-03-08T09:01:19;13.63;;;9.95;;
23370;SDS011;11858;51.056;3.712;2023-03-08T09:03:48;15.48;;;9.63;;
23370;SDS011;11858;51.056;3.712;2023-03-08T09:06:15;12.13;;;9.13;;
23370;SDS011;11858;51.056;3.712;2023-03-08T09:08:44;13.52;;;8.75;;
23370;SDS011;11858;51.056;3.712;2023-03-08T09:11:13;14.95;;;10.05;;
23370;SDS011;11858;51.056;3.712;2023-03-08T09:13:38;15.30;;;10.73;;
23370;SDS011;11858;51.056;3.712;2023-03-08T09:16:15;17.90;;;10.88;;
23370;SDS011;11858;51.056;3.712;2023-03-08T09:18:45;17.00;;;11.98;;
23370;SDS011;11858;51.056;3.712;2023-03-08T09:21:11;16.83;;;11.98;;
23370;SDS011;11858;51.056;3.712;2023-03-08T09:23:38;18.98;;;12.85;;
23370;SDS011;11858;51.056;3.712;2023-03-08T09:26:04;17.67;;;12.10;;
23370;SDS011;11858;51.056;3.712;2023-03-08T09:28:30;18.83;;;12.48;;
23370;SDS011;11858;51.056;3.712;2023-03-08T09:30:57;16.88;;;11.95;;
23370;SDS011;11858;51.056;3.712;2023-03-08T09:33:23;15.85;;;11.63;;
23370;SDS011;11858;51.056;3.712;2023-03-08T09:35:55;14.30;;;10.90;;
23370;SDS011;11858;51.056;3.712;2023-03-08T09:38:22;15.52;;;11.23;;
23370;SDS011;11858;51.056;3.712;2023-03-08T09:40:54;15.00;;;11.30;;
23370;SDS011;11858;51.056;3.712;2023-03-08T09:43:56;16.83;;;11.18;;
23370;SDS011;11858;51.056;3.712;2023-03-08T09:46:29;14.15;;;11.18;;
23370;SDS011;11858;51.056;3.712;2023-03-08T09:49:02;14.82;;;11.23;;
23370;SDS011;11858;51.056;3.712;2023-03-08T09:51:33;15.35;;;11.50;;
23370;SDS011;11858;51.056;3.712;2023-03-08T09:54:04;14.70;;;11.38;;
23370;SDS011;11858;51.056;3.712;2023-03-08T10:01:44;15.00;;;11.57;;
23370;SDS011;11858;51.056;3.712;2023-03-08T10:15:51;16.88;;;11.73;;
23370;SDS011;11858;51.056;3.712;2023-03-08T10:21:15;14.38;;;12.27;;
23370;SDS011;11858;51.056;3.712;2023-03-08T10:23:47;15.73;;;11.93;;
23370;SDS011;11858;51.056;3.712;2023-03-08T10:26:23;15.45;;;12.35;;
23370;SDS011;11858;51.056;3.712;2023-03-08T10:28:50;16.55;;;13.30;;
23370;SDS011;11858;51.056;3.712;2023-03-08T10:31:26;14.82;;;12.60;;
23370;SDS011;11858;51.056;3.712;2023-03-08T10:34:00;18.13;;;13.02;;
23370;SDS011;11858;51.056;3.712;2023-03-08T10:36:31;17.10;;;13.77;;
23370;SDS011;11858;51.056;3.712;2023-03-08T10:39:07;16.10;;;13.25;;
23370;SDS011;11858;51.056;3.712;2023-03-08T10:42:12;20.08;;;14.80;;
23370;SDS011;11858;51.056;3.712;2023-03-08T10:48:00;18.90;;;14.10;;
23370;SDS011;11858;51.056;3.712;2023-03-08T10:50:29;21.15;;;15.45;;
23370;SDS011;11858;51.056;3.712;2023-03-08T10:53:06;19.65;;;14.77;;
23370;SDS011;11858;51.056;3.712;2023-03-08T10:55:43;19.92;;;15.52;;
23370;SDS011;11858;51.056;3.712;2023-03-08T10:58:24;19.15;;;15.15;;
23370;SDS011;11858;51.056;3.712;2023-03-08T11:03:31;21.88;;;15.38;;
23370;SDS011;11858;51.056;3.712;2023-03-08T11:05:58;135.80;;;73.93;;
23370;SDS011;11858;51.056;3.712;2023-03-08T11:08:51;20.90;;;15.90;;
23370;SDS011;11858;51.056;3.712;2023-03-08T11:11:23;23.92;;;16.80;;
23370;SDS011;11858;51.056;3.712;2023-03-08T11:13:49;21.80;;;16.75;;
23370;SDS011;11858;51.056;3.712;2023-03-08T11:38:17;26.73;;;18.80;;
23370;SDS011;11858;51.056;3.712;2023-03-08T11:46:49;26.15;;;19.40;;
23370;SDS011;11858;51.056;3.712;2023-03-08T11:48:56;25.00;;;18.58;;
23370;SDS011;11858;51.056;3.712;2023-03-08T11:57:00;27.70;;;20.58;;
23370;SDS011;11858;51.056;3.712;2023-03-08T12:04:57;25.17;;;19.60;;
23370;SDS011;11858;51.056;3.712;2023-03-08T12:07:38;25.02;;;20.23;;
23370;SDS011;11858;51.056;3.712;2023-03-08T12:10:22;25.17;;;20.20;;
23370;SDS011;11858;51.056;3.712;2023-03-08T12:12:54;26.07;;;19.73;;
23370;SDS011;11858;51.056;3.712;2023-03-08T12:21:23;32.33;;;22.25;;
23370;SDS011;11858;51.056;3.712;2023-03-08T12:23:53;30.73;;;21.48;;
23370;SDS011;11858;51.056;3.712;2023-03-08T12:26:33;29.90;;;20.95;;
23370;SDS011;11858;51.056;3.712;2023-03-08T12:29:04;29.50;;;21.10;;
23370;SDS011;11858;51.056;3.712;2023-03-08T12:31:48;29.77;;;21.58;;
23370;SDS011;11858;51.056;3.712;2023-03-08T12:34:58;30.65;;;22.15;;
23370;SDS011;11858;51.056;3.712;2023-03-08T12:37:25;27.92;;;21.17;;
23370;SDS011;11858;51.056;3.712;2023-03-08T12:42:38;30.85;;;22.88;;
23370;SDS011;11858;51.056;3.712;2023-03-08T12:45:06;36.08;;;24.40;;
23370;SDS011;11858;51.056;3.712;2023-03-08T12:47:55;28.88;;;21.75;;
23370;SDS011;11858;51.056;3.712;2023-03-08T12:50:26;32.85;;;23.58;;
23370;SDS011;11858;51.056;3.712;2023-03-08T12:52:52;31.27;;;23.10;;
23370;SDS011;11858;51.056;3.712;2023-03-08T12:55:21;43.33;;;25.35;;
23370;SDS011;11858;51.056;3.712;2023-03-08T12:57:55;32.80;;;25.13;;
23370;SDS011;11858;51.056;3.712;2023-03-08T13:00:25;31.65;;;23.70;;
23370;SDS011;11858;51.056;3.712;2023-03-08T13:08:29;32.50;;;24.00;;
23370;SDS011;11858;51.056;3.712;2023-03-08T13:10:54;31.92;;;22.73;;
23370;SDS011;11858;51.056;3.712;2023-03-08T13:13:46;33.55;;;24.65;;
23370;SDS011;11858;51.056;3.712;2023-03-08T13:18:43;32.63;;;24.08;;
23370;SDS011;11858;51.056;3.712;2023-03-08T13:29:29;42.25;;;27.48;;
23370;SDS011;11858;51.056;3.712;2023-03-08T13:31:57;44.33;;;30.40;;
23370;SDS011;11858;51.056;3.712;2023-03-08T13:34:31;44.65;;;31.38;;
23370;SDS011;11858;51.056;3.712;2023-03-08T13:36:59;46.70;;;30.60;;
23370;SDS011;11858;51.056;3.712;2023-03-08T13:39:27;52.80;;;31.70;;
23370;SDS011;11858;51.056;3.712;2023-03-08T13:42:04;51.47;;;31.45;;
23370;SDS011;11858;51.056;3.712;2023-03-08T13:44:32;47.60;;;30.60;;
23370;SDS011;11858;51.056;3.712;2023-03-08T13:46:59;46.97;;;31.85;;
23370;SDS011;11858;51.056;3.712;2023-03-08T13:49:29;50.60;;;32.03;;
23370;SDS011;11858;51.056;3.712;2023-03-08T13:52:00;44.70;;;29.83;;
23370;SDS011;11858;51.056;3.712;2023-03-08T13:54:31;45.72;;;30.63;;
23370;SDS011;11858;51.056;3.712;2023-03-08T13:57:05;55.90;;;32.38;;
23370;SDS011;11858;51.056;3.712;2023-03-08T13:59:48;51.67;;;31.63;;
23370;SDS011;11858;51.056;3.712;2023-03-08T14:02:20;42.33;;;28.77;;
23370;SDS011;11858;51.056;3.712;2023-03-08T14:04:48;43.47;;;29.75;;
23370;SDS011;11858;51.056;3.712;2023-03-08T14:07:24;41.70;;;27.83;;
23370;SDS011;11858;51.056;3.712;2023-03-08T14:09:55;42.30;;;28.93;;
23370;SDS011;11858;51.056;3.712;2023-03-08T14:12:23;45.22;;;28.73;;
23370;SDS011;11858;51.056;3.712;2023-03-08T14:14:57;38.88;;;27.90;;
23370;SDS011;11858;51.056;3.712;2023-03-08T14:17:27;44.78;;;29.20;;
23370;SDS011;11858;51.056;3.712;2023-03-08T14:20:02;45.10;;;29.15;;
23370;SDS011;11858;51.056;3.712;2023-03-08T14:22:39;47.83;;;28.85;;
23370;SDS011;11858;51.056;3.712;2023-03-08T14:25:31;49.10;;;30.20;;
23370;SDS011;11858;51.056;3.712;2023-03-08T14:27:56;48.22;;;30.67;;
23370;SDS011;11858;51.056;3.712;2023-03-08T14:30:23;47.45;;;30.17;;
23370;SDS011;11858;51.056;3.712;2023-03-08T14:35:24;50.90;;;31.15;;
23370;SDS011;11858;51.056;3.712;2023-03-08T14:37:53;51.53;;;30.85;;
23370;SDS011;11858;51.056;3.712;2023-03-08T14:40:33;54.95;;;32.42;;
23370;SDS011;11858;51.056;3.712;2023-03-08T14:43:13;53.10;;;32.63;;
23370;SDS011;11858;51.056;3.712;2023-03-08T14:45:49;51.72;;;32.72;;
23370;SDS011;11858;51.056;3.712;2023-03-08T14:50:57;53.05;;;32.45;;
23370;SDS011;11858;51.056;3.712;2023-03-08T14:53:35;54.95;;;31.98;;
23370;SDS011;11858;51.056;3.712;2023-03-08T14:56:09;54.20;;;32.97;;
23370;SDS011;11858;51.056;3.712;2023-03-08T14:58:42;69.18;;;37.00;;
23370;SDS011;11858;51.056;3.712;2023-03-08T15:01:10;64.88;;;35.33;;
23370;SDS011;11858;51.056;3.712;2023-03-08T15:03:36;58.47;;;33.55;;
23370;SDS011;11858;51.056;3.712;2023-03-08T15:06:12;61.65;;;35.85;;
23370;SDS011;11858;51.056;3.712;2023-03-08T15:08:45;54.72;;;32.15;;
23370;SDS011;11858;51.056;3.712;2023-03-08T15:11:11;54.22;;;32.28;;
23370;SDS011;11858;51.056;3.712;2023-03-08T15:13:37;57.63;;;32.72;;
23370;SDS011;11858;51.056;3.712;2023-03-08T15:16:08;60.13;;;33.20;;
23370;SDS011;11858;51.056;3.712;2023-03-08T15:18:34;59.93;;;33.40;;
23370;SDS011;11858;51.056;3.712;2023-03-08T15:21:00;56.28;;;32.53;;
23370;SDS011;11858;51.056;3.712;2023-03-08T15:23:28;51.88;;;30.60;;
23370;SDS011;11858;51.056;3.712;2023-03-08T15:25:56;51.15;;;30.38;;
23370;SDS011;11858;51.056;3.712;2023-03-08T15:28:23;55.13;;;31.65;;
23370;SDS011;11858;51.056;3.712;2023-03-08T15:30:50;53.55;;;31.02;;
23370;SDS011;11858;51.056;3.712;2023-03-08T15:33:17;54.72;;;30.77;;
23370;SDS011;11858;51.056;3.712;2023-03-08T15:35:43;57.42;;;32.67;;
23370;SDS011;11858;51.056;3.712;2023-03-08T15:38:12;59.25;;;32.08;;
23370;SDS011;11858;51.056;3.712;2023-03-08T15:40:39;49.63;;;29.13;;
23370;SDS011;11858;51.056;3.712;2023-03-08T15:43:05;52.60;;;29.17;;
23370;SDS011;11858;51.056;3.712;2023-03-08T15:45:31;47.53;;;28.17;;
23370;SDS011;11858;51.056;3.712;2023-03-08T15:48:04;47.13;;;27.58;;
23370;SDS011;11858;51.056;3.712;2023-03-08T15:50:36;50.95;;;28.63;;
23370;SDS011;11858;51.056;3.712;2023-03-08T15:53:03;45.42;;;26.92;;
23370;SDS011;11858;51.056;3.712;2023-03-08T15:55:29;47.72;;;26.70;;
23370;SDS011;11858;51.056;3.712;2023-03-08T15:57:56;45.50;;;26.02;;
23370;SDS011;11858;51.056;3.712;2023-03-08T16:00:22;48.50;;;28.13;;
23370;SDS011;11858;51.056;3.712;2023-03-08T16:02:49;49.45;;;27.95;;
23370;SDS011;11858;51.056;3.712;2023-03-08T16:05:16;49.55;;;27.30;;
23370;SDS011;11858;51.056;3.712;2023-03-08T16:07:43;52.85;;;27.60;;